Charlevoix, MI

1:32 AM EDT on October 17, 2017 (GMT -0400)
Charlevoix Municipal

Weather History for KCVX - November, 2011

Change the Weather History Date:

Wednesday, November 23, 2011

  Actual Average Record
Temperature  
Mean Temperature 33 °F -  
Max Temperature 41 °F 40 °F 60 °F (2003)
Min Temperature 25 °F 27 °F 18 °F (2013)
Degree Days  
Heating Degree Days 32    
Moisture  
Dew Point 32 °F    
Average Humidity 85    
Maximum Humidity 99    
Minimum Humidity 74    
Precipitation  
Precipitation 0.00 in - - ()
Sea Level Pressure  
Sea Level Pressure 30.07 in    
Wind  
Wind Speed 6 mph (WSW)    
Max Wind Speed 14 mph    
Max Gust Speed 22 mph    
Visibility 9 miles    
Events      
Averages and records for this station are not official NWS values.
T = Trace of Precipitation, MM = Missing Value Source: NWS Daily Summary

Daily Weather History Graph

Daily Weather History Graph

Search for Another Location

Airport or City:

Trip Planner

Search our weather history database for the weather conditions in past years. The results will help you decide how hot, cold, wet, or windy it might be!

Date:

Astronomy

Nov. 23, 2011 Rise Set
Actual Time 7:49 AM EST 5:04 PM EST
Civil Twilight 7:17 AM EST 5:37 PM EST
Nautical Twilight 6:40 AM EST 6:13 PM EST
Astronomical Twilight 6:05 AM EST 6:48 PM EST
Moon 5:51 AM EST (11/23) 3:46 PM EST (11/23)
Length of Visible Light 10h 19m
Length of Day
9h 14m
Waning Crescent, 4% of the Moon is Illuminated
Nov 23
Waning Crescent
Nov 25
New
Dec 2
First Quarter
Dec 10
Full
Dec 17
Last Quarter

Hourly Weather History & Observations

Time (EST) Temp. Windchill Dew Point Humidity Pressure Visibility Wind Dir Wind Speed Gust Speed Precip Events Conditions
12:14 AM 35.4 °F 30.5 °F 32.0 °F 87% 30.00 in 10.0 mi ESE 5.8 mph - N/A   Clear
12:34 AM 33.4 °F 28.1 °F 31.1 °F 91% 30.00 in 10.0 mi SE 5.8 mph - N/A   Clear
12:55 AM 33.3 °F - 30.7 °F 90% 30.01 in 10.0 mi Calm Calm - N/A   Clear
1:14 AM 30.7 °F 27.3 °F 29.1 °F 94% 30.01 in 10.0 mi West 3.5 mph - N/A   Clear
1:34 AM 30.2 °F 25.4 °F 29.1 °F 96% 30.02 in 10.0 mi West 4.6 mph - N/A   Clear
2:14 AM 29.3 °F - 28.8 °F 98% 30.02 in 10.0 mi Calm Calm - N/A   Clear
2:35 AM 27.1 °F - 26.4 °F 97% 30.03 in 10.0 mi Calm Calm - N/A   Clear
2:55 AM 27.9 °F - 27.3 °F 98% 30.03 in 10.0 mi Calm Calm - N/A   Clear
3:35 AM 26.2 °F - 25.9 °F 99% 30.03 in 10.0 mi Calm Calm - N/A   Clear
3:54 AM 26.6 °F 22.6 °F 26.1 °F 98% 30.02 in 10.0 mi SSW 3.5 mph - N/A   Scattered Clouds
4:14 AM 27.5 °F 23.6 °F 27.3 °F 99% 30.02 in 10.0 mi SSW 3.5 mph - N/A   Scattered Clouds
4:35 AM 26.2 °F - 25.9 °F 99% 30.02 in 10.0 mi Calm Calm - N/A   Clear
4:54 AM 25.7 °F - 25.3 °F 99% 30.02 in 10.0 mi Calm Calm - N/A   Clear
5:14 AM 26.4 °F - 25.9 °F 98% 30.03 in 10.0 mi Calm Calm - N/A   Clear
5:35 AM 25.7 °F - 25.3 °F 99% 30.04 in 10.0 mi Calm Calm - N/A   Scattered Clouds
6:14 AM 26.8 °F 22.8 °F 26.2 °F 98% 30.05 in 10.0 mi SW 3.5 mph - N/A   Mostly Cloudy
6:34 AM 29.7 °F 24.7 °F 29.1 °F 98% 30.05 in 10.0 mi WSW 4.6 mph - N/A   Overcast
7:34 AM 36.9 °F 30.7 °F 33.4 °F 87% 30.07 in 10.0 mi WNW 8.1 mph - N/A   Overcast
7:54 AM 36.7 °F 30.5 °F 33.4 °F 88% 30.08 in 10.0 mi WNW 8.1 mph - N/A   Overcast
8:34 AM 36.9 °F 32.2 °F 33.1 °F 86% 30.09 in 7.0 mi NW 5.8 mph - N/A   Overcast
8:54 AM 37.4 °F 32.8 °F 33.4 °F 86% 30.09 in 10.0 mi WNW 5.8 mph - N/A   Overcast
9:15 AM 37.9 °F 34.4 °F 33.8 °F 85% 30.10 in 10.0 mi West 4.6 mph - N/A   Overcast
9:34 AM 38.3 °F 34.8 °F 33.4 °F 83% 30.10 in 10.0 mi WNW 4.6 mph - N/A   Overcast
9:55 AM 38.7 °F 35.2 °F 33.4 °F 81% 30.10 in 10.0 mi WNW 4.6 mph - N/A   Overcast
10:14 AM 38.7 °F 35.2 °F 33.1 °F 80% 30.10 in 10.0 mi NW 4.6 mph - N/A   Overcast
10:34 AM 39.2 °F 35.9 °F 33.6 °F 80% 30.12 in 10.0 mi WNW 4.6 mph - N/A   Overcast
10:55 AM 39.7 °F 34.9 °F 32.9 °F 77% 30.12 in 10.0 mi West 6.9 mph - N/A   Overcast
11:14 AM 40.1 °F 38.0 °F 32.9 °F 75% 30.12 in 10.0 mi WSW 3.5 mph - N/A   Overcast
11:34 AM 40.6 °F 36.7 °F 33.1 °F 74% 30.12 in 10.0 mi WSW 5.8 mph - N/A   Overcast
11:54 AM 40.3 °F 36.3 °F 33.1 °F 75% 30.12 in 10.0 mi West 5.8 mph - N/A   Overcast
12:35 PM 41.4 °F 36.2 °F 33.8 °F 74% 30.10 in 10.0 mi WSW 8.1 mph - N/A   Overcast
12:55 PM 41.0 °F 35.2 °F 33.4 °F 74% 30.10 in 10.0 mi WSW 9.2 mph - N/A   Overcast
1:14 PM 41.2 °F 36.6 °F 33.8 °F 75% 30.10 in 10.0 mi WSW 6.9 mph - N/A   Overcast
1:35 PM 41.4 °F 36.8 °F 33.6 °F 74% 30.09 in 10.0 mi SW 6.9 mph - N/A   Overcast
1:54 PM 41.4 °F 36.2 °F 34.0 °F 75% 30.08 in 10.0 mi SSW 8.1 mph - N/A   Overcast
2:14 PM 41.4 °F 36.2 °F 33.6 °F 74% 30.08 in 10.0 mi SW 8.1 mph - N/A   Overcast
2:35 PM 41.4 °F 34.7 °F 34.2 °F 76% 30.07 in 10.0 mi SW 11.5 mph 17.3 mph N/A   Overcast
2:54 PM 41.2 °F 33.7 °F 34.0 °F 76% 30.08 in 10.0 mi WSW 13.8 mph 17.3 mph N/A   Mostly Cloudy
3:35 PM 41.0 °F 34.7 °F 34.2 °F 77% 30.08 in 10.0 mi WSW 10.4 mph 16.1 mph N/A   Overcast
3:54 PM 41.0 °F 33.9 °F 34.2 °F 77% 30.08 in 10.0 mi WSW 12.7 mph 19.6 mph N/A   Mostly Cloudy
4:14 PM 40.3 °F 33.4 °F 34.0 °F 78% 30.10 in 10.0 mi WSW 11.5 mph 17.3 mph N/A   Scattered Clouds
4:35 PM 39.0 °F 31.8 °F 33.8 °F 82% 30.10 in 10.0 mi WSW 11.5 mph 18.4 mph N/A   Clear
4:54 PM 39.2 °F 33.0 °F 34.0 °F 82% 30.10 in 10.0 mi SW 9.2 mph 19.6 mph N/A   Scattered Clouds
5:14 PM 39.6 °F 32.5 °F 34.5 °F 82% 30.10 in 10.0 mi SW 11.5 mph - N/A   Overcast
5:35 PM 39.7 °F 32.7 °F 34.7 °F 82% 30.09 in 10.0 mi SW 11.5 mph 18.4 mph N/A   Overcast
5:54 PM 39.7 °F 32.3 °F 34.7 °F 82% 30.10 in 10.0 mi SW 12.7 mph 16.1 mph N/A   Overcast
6:15 PM 39.9 °F 33.9 °F 34.9 °F 82% 30.09 in 10.0 mi SSW 9.2 mph 17.3 mph N/A   Overcast
6:35 PM 40.1 °F 34.1 °F 35.1 °F 82% 30.09 in 10.0 mi SW 9.2 mph 21.9 mph N/A   Overcast
6:54 PM 40.1 °F 34.1 °F 35.2 °F 83% 30.09 in 10.0 mi SSW 9.2 mph 18.4 mph N/A   Overcast
7:54 PM 39.2 °F 33.6 °F 35.1 °F 85% 30.09 in 10.0 mi SW 8.1 mph - N/A   Mostly Cloudy
8:15 PM 39.6 °F 32.5 °F 35.2 °F 85% 30.08 in 7.0 mi SW 11.5 mph 17.3 mph N/A   Overcast
8:34 PM 39.9 °F 33.9 °F 35.6 °F 85% 30.08 in 7.0 mi SW 9.2 mph 17.3 mph N/A   Overcast
8:54 PM 40.1 °F 34.7 °F 35.6 °F 84% 30.08 in 7.0 mi SW 8.1 mph - N/A   Overcast
9:34 PM 40.1 °F 33.2 °F 35.6 °F 84% 30.08 in 7.0 mi SW 11.5 mph 17.3 mph N/A   Overcast
10:15 PM 40.1 °F 33.6 °F 35.6 °F 84% 30.07 in 7.0 mi SW 10.4 mph 17.3 mph N/A   Overcast
10:34 PM 40.1 °F 32.7 °F 35.8 °F 85% 30.07 in 7.0 mi SW 12.7 mph 19.6 mph N/A   Overcast
10:54 PM 39.7 °F 32.3 °F 35.6 °F 85% 30.07 in 7.0 mi SW 12.7 mph 16.1 mph N/A   Mostly Cloudy
11:14 PM 39.7 °F 32.7 °F 35.6 °F 85% 30.06 in 7.0 mi SSW 11.5 mph 18.4 mph N/A   Overcast
11:34 PM 39.6 °F 33.0 °F 35.6 °F 86% 30.06 in 7.0 mi SSW 10.4 mph 18.4 mph N/A   Mostly Cloudy
11:55 PM 39.4 °F 32.3 °F 35.6 °F 86% 30.07 in 7.0 mi SW 11.5 mph 19.6 mph N/A   Scattered Clouds